Glen Eden, Indiana
Current Conditions -  °F | °C
As of 9:35 AM on Tuesday 27 Jan 2015 (Local Time) from KANQ Reporting Station
Clear Clear  
Wind Chill:   Ceiling: Unl
Heat Index: 16°   Visibility: 10mi
Dew Point: 10°   Wind: 5mph
Humidity: 79%   Direction: 20°NNE
Pressure: 30.08"   Gusts: NA
Location:  41.6594°N, 85.0055°W
Report Text: KANQ 271435Z AUTO 02004KT 10SM CLR M09/M12 A3008 RMK
Loading
Personal Weather Stations






























Interactive Weather Map New forecast layout! Learn more

10-Day Weather Forecast

Advertisements
Track Severe Weather on mobile